createdAt,value
2024-04-15T00:00:25.138Z,8.10
2024-04-15T00:02:52.807Z,5.07
2024-04-15T00:05:20.535Z,8.70
2024-04-15T00:07:51.025Z,4.32
2024-04-15T00:10:18.894Z,6.65
2024-04-15T00:12:46.563Z,5.53
2024-04-15T00:15:15.048Z,6.95
2024-04-15T00:17:42.670Z,2.15
2024-04-15T00:20:11.273Z,4.57
2024-04-15T00:22:38.847Z,10.45
2024-04-15T00:25:07.300Z,6.00
2024-04-15T00:27:34.974Z,7.00
2024-04-15T00:30:02.665Z,4.32
2024-04-15T00:32:30.315Z,8.48
2024-04-15T00:34:57.955Z,7.65
2024-04-15T00:37:25.611Z,5.93
2024-04-15T00:39:53.754Z,3.78
2024-04-15T00:42:21.497Z,7.95
2024-04-15T00:44:49.136Z,7.68
2024-04-15T00:47:17.240Z,7.35
2024-04-15T00:49:45.810Z,4.43
2024-04-15T00:52:14.502Z,7.00
2024-04-15T00:54:46.347Z,8.30
2024-04-15T00:57:14.429Z,3.97
2024-04-15T00:59:43.499Z,6.95
2024-04-15T01:02:11.799Z,8.10
2024-04-15T01:04:40.240Z,9.32
2024-04-15T01:07:08.523Z,7.10
2024-04-15T01:09:36.326Z,6.18
2024-04-15T01:12:04.364Z,10.43
2024-04-15T01:14:32.043Z,8.88
2024-04-15T01:16:59.605Z,4.78
2024-04-15T01:19:27.303Z,11.10
2024-04-15T01:21:55.038Z,8.77
2024-04-15T01:24:22.762Z,8.32
2024-04-15T01:26:50.426Z,6.55
2024-04-15T01:29:18.134Z,4.53
2024-04-15T01:31:45.685Z,5.85
2024-04-15T01:34:13.275Z,4.88
2024-04-15T01:36:40.946Z,9.93
2024-04-15T01:39:08.612Z,10.43
2024-04-15T01:41:36.412Z,7.88
2024-04-15T01:44:03.999Z,6.65
2024-04-15T01:46:31.585Z,8.85
2024-04-15T01:48:59.286Z,12.10
2024-04-15T01:51:26.900Z,10.38
2024-04-15T01:53:54.464Z,6.63
2024-04-15T01:56:22.366Z,6.65
2024-04-15T01:58:49.974Z,5.15
2024-04-15T02:01:17.727Z,4.68
2024-04-15T02:03:45.420Z,9.20
2024-04-15T02:06:13.150Z,8.50
2024-04-15T02:08:40.722Z,4.80
2024-04-15T02:11:08.452Z,8.65
2024-04-15T02:13:36.243Z,14.10
2024-04-15T02:16:04.202Z,16.20
2024-04-15T02:18:31.847Z,7.90
2024-04-15T02:21:01.559Z,7.28
2024-04-15T02:23:29.166Z,6.95
2024-04-15T02:25:56.750Z,8.35
2024-04-15T02:28:24.406Z,11.95
2024-04-15T02:30:52.444Z,10.80
2024-04-15T02:33:20.072Z,8.65
2024-04-15T02:35:47.735Z,11.93
2024-04-15T02:38:15.448Z,10.85
2024-04-15T02:40:43.713Z,18.52
2024-04-15T02:43:12.228Z,15.73
2024-04-15T02:45:42.958Z,8.32
2024-04-15T02:48:10.698Z,7.70
2024-04-15T02:50:38.423Z,11.20
2024-04-15T02:53:06.196Z,8.93
2024-04-15T02:55:33.926Z,10.27
2024-04-15T02:58:01.554Z,9.88
2024-04-15T03:00:29.212Z,8.63
2024-04-15T03:02:56.823Z,6.70
2024-04-15T03:05:25.282Z,8.30
2024-04-15T03:07:52.935Z,11.35
2024-04-15T03:10:20.684Z,11.43
2024-04-15T03:12:52.876Z,7.20
2024-04-15T03:15:21.248Z,9.02
2024-04-15T03:17:50.155Z,7.78
2024-04-15T03:20:18.272Z,10.70
2024-04-15T03:22:52.799Z,9.70
2024-04-15T03:25:21.346Z,11.07
2024-04-15T03:27:49.778Z,7.15
2024-04-15T03:30:17.704Z,9.35
2024-04-15T03:32:45.437Z,10.07
2024-04-15T03:35:16.428Z,10.98
2024-04-15T03:37:44.185Z,11.10
2024-04-15T03:40:12.639Z,4.40
2024-04-15T03:42:40.295Z,12.38
2024-04-15T03:46:12.913Z,11.05
2024-04-15T03:48:40.673Z,8.73
2024-04-15T03:51:08.314Z,10.55
2024-04-15T03:53:36.372Z,11.57
2024-04-15T03:56:04.366Z,9.07
2024-04-15T03:58:31.996Z,12.75
2024-04-15T04:01:03.211Z,18.27
2024-04-15T04:03:31.021Z,9.52
2024-04-15T04:06:09.840Z,8.57
2024-04-15T04:08:42.937Z,10.57
2024-04-15T04:11:11.099Z,9.70
2024-04-15T04:13:39.042Z,12.18
2024-04-15T04:16:11.877Z,13.73
2024-04-15T04:18:39.731Z,8.27
2024-04-15T04:21:12.235Z,10.77
2024-04-15T04:23:40.267Z,10.32
2024-04-15T04:26:07.883Z,12.18
2024-04-15T04:28:35.434Z,12.68
2024-04-15T04:31:04.222Z,14.38
2024-04-15T04:33:33.419Z,10.75
2024-04-15T04:36:01.310Z,15.30
2024-04-15T04:38:29.284Z,9.98
2024-04-15T04:41:00.759Z,12.57
2024-04-15T04:43:29.042Z,13.98
2024-04-15T04:45:56.800Z,11.10
2024-04-15T04:48:24.392Z,14.93
2024-04-15T04:50:52.063Z,9.85
2024-04-15T04:53:19.647Z,16.95
2024-04-15T04:55:47.162Z,11.80
2024-04-15T04:58:15.322Z,17.65
2024-04-15T05:00:43.138Z,12.02
2024-04-15T05:03:10.868Z,8.57
2024-04-15T05:05:38.588Z,13.63
2024-04-15T05:08:06.472Z,13.32
2024-04-15T05:10:37.300Z,11.02
2024-04-15T05:13:05.121Z,12.40
2024-04-15T05:15:32.792Z,19.33
2024-04-15T05:18:00.786Z,16.38
2024-04-15T05:20:28.514Z,15.40
2024-04-15T05:22:56.188Z,17.23
2024-04-15T05:25:23.886Z,13.27
2024-04-15T05:27:51.737Z,12.10
2024-04-15T05:30:19.460Z,11.82
2024-04-15T05:32:47.368Z,11.85
2024-04-15T05:35:15.326Z,14.25
2024-04-15T05:37:43.093Z,16.90
2024-04-15T05:40:10.675Z,11.15
2024-04-15T05:42:39.099Z,17.25
2024-04-15T05:45:06.932Z,13.27
2024-04-15T05:47:34.540Z,12.57
2024-04-15T05:50:02.268Z,12.07
2024-04-15T05:52:29.956Z,18.20
2024-04-15T05:54:58.145Z,12.88
2024-04-15T05:57:25.955Z,13.95
2024-04-15T05:59:56.031Z,11.65
2024-04-15T06:02:23.877Z,14.70
2024-04-15T06:04:52.134Z,11.65
2024-04-15T06:07:19.932Z,14.35
2024-04-15T06:09:48.078Z,12.48
2024-04-15T06:12:15.716Z,16.35
2024-04-15T06:14:43.553Z,10.65
2024-04-15T06:17:11.112Z,10.73
2024-04-15T06:19:40.298Z,8.30
2024-04-15T06:22:08.139Z,9.05
2024-04-15T06:24:36.873Z,5.35
2024-04-15T06:27:04.596Z,10.40
2024-04-15T06:29:32.315Z,5.47
2024-04-15T06:31:59.852Z,8.05
2024-04-15T06:34:30.485Z,10.40
2024-04-15T06:36:58.556Z,5.05
2024-04-15T06:39:27.208Z,6.35
2024-04-15T06:41:55.087Z,6.90
2024-04-15T06:44:22.768Z,8.40
2024-04-15T06:46:50.605Z,14.15
2024-04-15T06:49:18.643Z,11.77
2024-04-15T06:51:46.468Z,8.25
2024-04-15T06:54:14.259Z,10.70
2024-04-15T06:56:41.889Z,11.73
2024-04-15T06:59:09.452Z,7.70
2024-04-15T07:01:39.160Z,14.85
2024-04-15T07:04:08.239Z,5.88
2024-04-15T07:06:36.247Z,15.25
2024-04-15T07:09:04.177Z,15.50
2024-04-15T07:11:31.858Z,13.93
2024-04-15T07:14:00.186Z,14.80
2024-04-15T07:16:27.770Z,13.73
2024-04-15T07:18:55.451Z,13.10
2024-04-15T07:21:23.452Z,21.85
2024-04-15T07:23:51.441Z,15.48
2024-04-15T07:26:19.015Z,11.60
2024-04-15T07:28:46.711Z,22.38
2024-04-15T07:31:14.388Z,19.05
2024-04-15T07:33:42.605Z,10.80
2024-04-15T07:36:10.368Z,16.55
2024-04-15T07:38:38.001Z,18.35
2024-04-15T07:41:07.563Z,14.77
2024-04-15T07:43:35.241Z,22.23
2024-04-15T07:46:02.910Z,18.80
2024-04-15T07:48:30.495Z,18.38
2024-04-15T07:50:58.156Z,17.15
2024-04-15T07:53:25.760Z,16.30
2024-04-15T07:55:53.392Z,16.55
2024-04-15T07:58:21.392Z,19.42
2024-04-15T08:00:49.063Z,12.80
2024-04-15T08:03:16.668Z,11.77
2024-04-15T08:05:44.652Z,10.68
2024-04-15T08:08:12.217Z,10.48
2024-04-15T08:10:39.744Z,11.80
2024-04-15T08:13:07.613Z,10.35
2024-04-15T08:15:35.206Z,13.05
2024-04-15T08:18:03.026Z,11.18
2024-04-15T08:20:30.756Z,12.07
2024-04-15T08:22:58.296Z,15.52
2024-04-15T08:25:26.036Z,11.23
2024-04-15T08:27:53.771Z,11.80
2024-04-15T08:30:21.423Z,10.85
2024-04-15T08:32:52.130Z,15.32
2024-04-15T08:35:19.773Z,17.60
2024-04-15T08:37:47.339Z,15.57
2024-04-15T08:40:15.182Z,10.10
2024-04-15T08:42:46.388Z,9.55
2024-04-15T08:45:21.906Z,11.75
2024-04-15T08:47:53.552Z,9.80
2024-04-15T08:50:22.309Z,8.40
2024-04-15T08:52:55.201Z,12.60
2024-04-15T08:55:24.794Z,15.73
2024-04-15T08:57:53.778Z,13.98
2024-04-15T09:00:23.260Z,11.15
2024-04-15T09:02:53.314Z,11.43
2024-04-15T09:05:21.417Z,10.90
2024-04-15T09:07:51.032Z,12.20
2024-04-15T09:10:18.734Z,18.48
2024-04-15T09:12:47.096Z,15.18
2024-04-15T09:15:16.844Z,13.13
2024-04-15T09:17:44.721Z,9.30
2024-04-15T09:20:12.577Z,6.63
2024-04-15T09:22:40.152Z,3.95
2024-04-15T09:25:08.127Z,4.82
2024-04-15T09:27:35.876Z,3.75
2024-04-15T09:30:05.050Z,4.50
2024-04-15T09:35:06.281Z,4.38
2024-04-15T09:37:37.990Z,3.00
2024-04-15T09:40:15.043Z,5.35
2024-04-15T09:42:44.399Z,2.38
2024-04-15T09:45:12.578Z,2.00
2024-04-15T09:47:43.934Z,2.97
2024-04-15T09:50:12.806Z,4.55
2024-04-15T09:52:44.208Z,3.22
2024-04-15T09:55:22.401Z,2.42
2024-04-15T09:57:52.827Z,2.95
2024-04-15T10:00:20.653Z,5.65
2024-04-15T10:02:58.906Z,3.90
2024-04-15T10:05:31.215Z,3.53
2024-04-15T10:07:58.949Z,4.50
2024-04-15T10:10:29.012Z,3.53
2024-04-15T10:13:00.655Z,4.25
2024-04-15T10:15:34.261Z,6.28
2024-04-15T10:18:06.854Z,5.50
2024-04-15T10:20:38.098Z,2.97
2024-04-15T10:23:11.663Z,2.33
2024-04-15T10:25:41.087Z,3.47
2024-04-15T10:28:15.483Z,5.00
2024-04-15T10:30:47.581Z,3.10
2024-04-15T10:33:21.612Z,5.82
2024-04-15T10:35:54.601Z,4.72
2024-04-15T10:38:28.698Z,6.97
2024-04-15T10:40:56.968Z,7.28
2024-04-15T10:43:25.991Z,5.32
2024-04-15T10:45:54.323Z,4.32
2024-04-15T10:48:22.183Z,7.10
2024-04-15T10:50:49.752Z,6.07
2024-04-15T10:53:17.349Z,3.75
2024-04-15T10:55:49.133Z,5.72
2024-04-15T10:58:18.395Z,7.55
2024-04-15T11:00:47.083Z,3.10
2024-04-15T11:03:15.272Z,3.40
2024-04-15T11:05:43.877Z,8.90
2024-04-15T11:08:14.608Z,5.03
2024-04-15T11:10:42.616Z,9.48
2024-04-15T11:13:13.700Z,6.25
2024-04-15T11:30:02.812Z,5.30
2024-04-15T11:32:34.438Z,5.65
2024-04-15T11:35:04.904Z,4.90
2024-04-15T11:37:33.450Z,3.47
2024-04-15T11:40:01.635Z,2.45
2024-04-15T11:42:29.572Z,3.78
2024-04-15T11:44:58.179Z,6.47
2024-04-15T11:47:26.275Z,3.17
2024-04-15T11:49:53.949Z,5.38
2024-04-15T11:52:22.056Z,7.60
2024-04-15T11:54:50.019Z,8.15
2024-04-15T11:57:18.059Z,6.30
2024-04-15T11:59:45.937Z,5.20
2024-04-15T12:02:15.056Z,3.17
2024-04-15T12:04:49.358Z,6.93
2024-04-15T12:07:18.452Z,5.78
2024-04-15T12:09:46.328Z,6.15
2024-04-15T12:12:14.003Z,6.07
2024-04-15T12:14:41.678Z,3.42
2024-04-15T12:17:09.691Z,6.20
2024-04-15T12:19:37.277Z,5.05
2024-04-15T12:22:05.386Z,9.60
2024-04-15T12:24:36.042Z,4.28
2024-04-15T12:27:04.331Z,4.15
2024-04-15T12:29:32.078Z,5.78
2024-04-15T12:31:59.803Z,6.28
2024-04-15T12:34:27.501Z,8.13
2024-04-15T12:36:55.233Z,5.80
2024-04-15T12:39:23.036Z,6.43
2024-04-15T12:41:50.651Z,7.78
2024-04-15T12:44:19.712Z,8.75
2024-04-15T12:46:47.332Z,8.60
2024-04-15T12:49:16.107Z,7.40
2024-04-15T12:51:43.821Z,9.80
2024-04-15T12:54:11.779Z,6.50
2024-04-15T12:56:39.424Z,6.05
2024-04-15T12:59:07.286Z,8.07
2024-04-15T13:01:39.236Z,4.88
2024-04-15T13:04:11.889Z,4.70
2024-04-15T13:06:39.760Z,6.72
2024-04-15T13:09:08.301Z,5.43
2024-04-15T13:11:36.159Z,4.50
2024-04-15T13:14:03.812Z,7.15
2024-04-15T13:16:31.742Z,9.10
2024-04-15T13:19:01.778Z,6.75
2024-04-15T13:21:29.516Z,6.72
2024-04-15T13:23:57.413Z,9.32
2024-04-15T13:26:25.069Z,5.15
2024-04-15T13:28:53.201Z,3.95
2024-04-15T13:31:21.122Z,8.23
2024-04-15T13:33:50.686Z,6.22
2024-04-15T13:36:19.141Z,6.38
2024-04-15T13:38:47.218Z,5.78
2024-04-15T13:41:15.870Z,9.88
2024-04-15T13:43:44.096Z,7.22
2024-04-15T13:46:14.134Z,7.75
2024-04-15T13:48:42.002Z,5.63
2024-04-15T13:51:09.816Z,5.80
2024-04-15T13:53:37.687Z,6.55
2024-04-15T13:56:06.048Z,5.20
2024-04-15T13:58:33.926Z,5.05
2024-04-15T14:01:01.844Z,10.68
2024-04-15T14:03:29.591Z,7.72
2024-04-15T14:05:57.540Z,5.88
2024-04-15T14:08:26.442Z,2.75
2024-04-15T14:10:54.538Z,5.97
2024-04-15T14:13:22.444Z,9.23
2024-04-15T14:15:50.626Z,5.28
2024-04-15T14:18:18.478Z,3.33
2024-04-15T14:20:46.151Z,7.32
2024-04-15T14:23:13.873Z,4.82
2024-04-15T14:25:42.421Z,6.82
2024-04-15T14:28:10.669Z,3.92
2024-04-15T14:30:40.076Z,4.00
2024-04-15T14:33:07.907Z,4.90
2024-04-15T14:35:35.628Z,3.40
2024-04-15T14:38:03.329Z,3.53
2024-04-15T14:40:31.899Z,4.30
2024-04-15T14:42:59.907Z,3.67
2024-04-15T14:45:27.539Z,6.32
2024-04-15T14:47:56.188Z,5.50
2024-04-15T14:50:23.951Z,5.35
2024-04-15T14:52:51.574Z,4.32
2024-04-15T14:55:21.049Z,4.07
2024-04-15T14:57:48.709Z,6.35
2024-04-15T15:00:17.819Z,5.35
2024-04-15T15:02:45.680Z,3.80
2024-04-15T15:05:13.980Z,4.05
2024-04-15T15:07:42.170Z,7.40
2024-04-15T15:10:10.596Z,2.88
2024-04-15T15:12:38.306Z,4.78
2024-04-15T15:15:06.466Z,4.03
2024-04-15T15:17:34.246Z,4.40
2024-04-15T15:20:01.999Z,5.63
2024-04-15T15:22:29.849Z,6.30
2024-04-15T15:24:58.112Z,3.60
2024-04-15T15:27:26.703Z,3.25
2024-04-15T15:29:56.535Z,7.68
2024-04-15T15:32:24.204Z,6.03
2024-04-15T15:34:51.864Z,6.82
2024-04-15T15:37:19.666Z,5.63
2024-04-15T15:39:47.404Z,7.28
2024-04-15T15:42:15.603Z,3.17
2024-04-15T15:44:43.233Z,4.45
2024-04-15T15:47:10.981Z,7.70
2024-04-15T15:49:38.546Z,5.47
2024-04-15T15:52:06.531Z,4.45
2024-04-15T15:54:34.110Z,5.72
2024-04-15T15:57:02.429Z,7.28
2024-04-15T15:59:30.068Z,6.45
2024-04-15T16:01:58.492Z,7.45
2024-04-15T16:04:26.409Z,4.05
2024-04-15T16:06:54.792Z,10.07
2024-04-15T16:09:22.489Z,5.22
2024-04-15T16:11:50.168Z,4.95
2024-04-15T16:14:17.784Z,3.85
2024-04-15T16:16:45.428Z,4.38
2024-04-15T16:19:13.761Z,4.38
2024-04-15T16:21:42.140Z,2.00
2024-04-15T16:24:09.896Z,5.47
2024-04-15T16:26:37.905Z,4.45
2024-04-15T16:29:06.243Z,3.70
2024-04-15T16:31:34.493Z,1.13
2024-04-15T16:34:02.310Z,3.15
2024-04-15T16:36:30.765Z,3.40
2024-04-15T16:38:58.454Z,2.85
2024-04-15T16:41:27.183Z,2.22
2024-04-15T16:43:54.805Z,3.70
2024-04-15T16:46:23.880Z,5.88
2024-04-15T16:48:51.774Z,4.93
2024-04-15T16:51:19.481Z,3.83
2024-04-15T16:53:47.088Z,5.75
2024-04-15T16:56:14.933Z,6.13
2024-04-15T16:58:42.732Z,7.55
2024-04-15T17:01:10.441Z,6.53
2024-04-15T17:03:38.504Z,3.42
2024-04-15T17:06:07.789Z,7.57
2024-04-15T17:08:36.223Z,4.38
2024-04-15T17:11:03.936Z,2.05
2024-04-15T17:13:31.580Z,3.63
2024-04-15T17:15:59.183Z,3.58
2024-04-15T17:18:27.079Z,2.85
2024-04-15T17:20:54.808Z,4.68
2024-04-15T17:23:22.737Z,7.47
2024-04-15T17:25:50.411Z,6.60
2024-04-15T17:28:18.990Z,6.70
2024-04-15T17:30:46.624Z,5.55
2024-04-15T17:33:14.334Z,6.55
2024-04-15T17:35:42.483Z,5.85
2024-04-15T17:38:10.597Z,5.88
2024-04-15T17:40:38.228Z,4.25
2024-04-15T17:43:06.216Z,4.10
2024-04-15T17:45:35.084Z,9.25
2024-04-15T17:48:03.243Z,7.05
2024-04-15T17:50:30.875Z,10.15
2024-04-15T17:52:58.643Z,9.70
2024-04-15T17:55:26.812Z,6.20
2024-04-15T17:57:58.365Z,8.27
2024-04-15T18:00:30.002Z,6.57
2024-04-15T18:02:59.783Z,6.60
2024-04-15T18:05:27.931Z,6.53
2024-04-15T18:07:55.632Z,4.90
2024-04-15T18:10:24.920Z,8.50
2024-04-15T18:12:52.801Z,6.32
2024-04-15T18:15:22.325Z,3.83
2024-04-15T18:17:50.546Z,6.70
2024-04-15T18:20:18.227Z,8.63
2024-04-15T18:22:45.844Z,13.57
2024-04-15T18:25:13.553Z,9.05
2024-04-15T18:27:41.128Z,6.90
2024-04-15T18:30:09.818Z,10.70
2024-04-15T18:32:37.586Z,5.50
2024-04-15T18:35:05.591Z,10.38
2024-04-15T18:37:33.259Z,7.47
2024-04-15T18:40:00.984Z,9.40
2024-04-15T18:42:28.590Z,11.35
2024-04-15T18:44:58.664Z,12.38
2024-04-15T18:47:26.572Z,8.80
2024-04-15T18:49:54.288Z,7.63
2024-04-15T18:52:21.874Z,8.52
2024-04-15T18:54:49.791Z,6.47
2024-04-15T18:57:17.409Z,8.30
2024-04-15T18:59:45.274Z,8.77
2024-04-15T19:02:12.889Z,9.45
2024-04-15T19:04:40.455Z,9.25
2024-04-15T19:07:08.794Z,7.25
2024-04-15T19:09:36.749Z,8.63
2024-04-15T19:12:04.597Z,4.13
2024-04-15T19:14:40.905Z,6.28
2024-04-15T19:17:20.015Z,5.22
2024-04-15T19:19:47.696Z,4.43
2024-04-15T19:22:15.477Z,9.50
2024-04-15T19:24:43.410Z,4.00
2024-04-15T19:27:11.125Z,5.47
2024-04-15T19:29:38.995Z,5.25
2024-04-15T19:32:07.122Z,4.90
2024-04-15T19:34:35.007Z,5.55
2024-04-15T19:37:02.720Z,7.80
2024-04-15T19:39:30.483Z,8.70
2024-04-15T19:41:57.994Z,8.90
2024-04-15T19:44:25.655Z,6.68
2024-04-15T19:46:53.219Z,6.13
2024-04-15T19:49:20.995Z,9.38
2024-04-15T19:51:48.589Z,4.70
2024-04-15T19:54:16.136Z,9.95
2024-04-15T19:56:43.669Z,5.47
2024-04-15T19:59:11.310Z,6.90
2024-04-15T20:01:39.104Z,7.05
2024-04-15T20:04:06.836Z,7.00
2024-04-15T20:06:34.631Z,4.65
2024-04-15T20:09:02.572Z,6.38
2024-04-15T20:11:30.827Z,5.35
2024-04-15T20:13:59.040Z,7.85
2024-04-15T20:16:26.690Z,5.82
2024-04-15T20:19:02.536Z,6.40
2024-04-15T20:21:31.556Z,5.45
2024-04-15T20:23:59.508Z,8.32
2024-04-15T20:26:27.523Z,4.70
2024-04-15T20:28:55.128Z,4.50
2024-04-15T20:31:22.800Z,6.88
2024-04-15T20:33:50.445Z,6.82
2024-04-15T20:36:18.087Z,9.35
2024-04-15T20:38:45.851Z,9.18
2024-04-15T20:41:14.349Z,5.10
2024-04-15T20:43:43.507Z,8.05
2024-04-15T20:46:12.228Z,5.85
2024-04-15T20:48:40.482Z,5.57
2024-04-15T20:51:08.189Z,6.45
2024-04-15T20:53:36.077Z,10.65
2024-04-15T20:56:06.250Z,8.85
2024-04-15T20:58:33.996Z,3.38
2024-04-15T21:01:04.708Z,7.47
2024-04-15T21:03:33.467Z,5.30
2024-04-15T21:06:01.253Z,7.88
2024-04-15T21:08:28.917Z,5.05
2024-04-15T21:10:56.950Z,8.15
2024-04-15T21:13:24.709Z,3.97
2024-04-15T21:15:54.115Z,6.03
2024-04-15T21:18:22.054Z,9.43
2024-04-15T21:20:49.848Z,4.43
2024-04-15T21:23:17.721Z,8.60
2024-04-15T21:25:45.598Z,4.85
2024-04-15T21:28:13.452Z,8.50
2024-04-15T21:30:41.096Z,5.97
2024-04-15T21:33:08.739Z,6.78
2024-04-15T21:35:37.594Z,7.03
2024-04-15T21:38:05.443Z,8.80
2024-04-15T21:40:34.228Z,7.90
2024-04-15T21:43:01.967Z,4.65
2024-04-15T21:45:30.559Z,7.65
2024-04-15T21:47:58.204Z,6.20
2024-04-15T21:50:26.080Z,6.40
2024-04-15T21:52:53.671Z,5.22
2024-04-15T21:55:21.263Z,4.80
2024-04-15T21:57:48.921Z,6.40
2024-04-15T22:00:16.480Z,6.15
2024-04-15T22:02:45.239Z,6.80
2024-04-15T22:05:14.458Z,5.93
2024-04-15T22:07:43.513Z,9.73
2024-04-15T22:10:13.400Z,9.18
2024-04-15T22:12:42.278Z,6.97
2024-04-15T22:15:11.237Z,5.00
2024-04-15T22:17:40.668Z,6.40
2024-04-15T22:20:09.711Z,8.20
2024-04-15T22:22:39.700Z,6.75
2024-04-15T22:25:08.844Z,4.97
2024-04-15T22:27:38.278Z,5.00
2024-04-15T22:30:07.776Z,6.20
2024-04-15T22:32:37.264Z,8.50
2024-04-15T22:35:06.853Z,6.20
2024-04-15T22:37:34.922Z,6.60
2024-04-15T22:40:02.679Z,7.13
2024-04-15T22:42:31.021Z,6.65
2024-04-15T22:44:59.733Z,8.15
2024-04-15T22:47:27.414Z,5.68
2024-04-15T22:49:55.211Z,8.32
2024-04-15T22:52:22.993Z,8.70
2024-04-15T22:54:50.680Z,6.05
2024-04-15T22:57:18.401Z,4.90
2024-04-15T22:59:46.251Z,8.55
2024-04-15T23:02:14.088Z,9.27
2024-04-15T23:04:41.934Z,7.38
2024-04-15T23:07:10.951Z,8.15
2024-04-15T23:09:39.490Z,9.32
2024-04-15T23:12:07.425Z,5.15
2024-04-15T23:14:35.574Z,6.40
2024-04-15T23:17:04.268Z,8.35
2024-04-15T23:19:32.232Z,8.73
2024-04-15T23:22:00.076Z,10.27
2024-04-15T23:24:28.493Z,8.10
2024-04-15T23:26:56.389Z,6.03
2024-04-15T23:29:24.082Z,11.23
2024-04-15T23:31:52.629Z,7.78
2024-04-15T23:34:21.235Z,7.07
2024-04-15T23:36:49.159Z,11.77
2024-04-15T23:39:17.109Z,7.72
2024-04-15T23:41:44.765Z,7.32
2024-04-15T23:44:14.727Z,9.10
2024-04-15T23:47:01.103Z,6.82
2024-04-15T23:49:47.651Z,11.13
2024-04-15T23:52:34.254Z,11.50
2024-04-15T23:55:20.543Z,11.50
2024-04-15T23:57:58.071Z,10.48
